createdAt,value
2019-01-31T00:02:47.488Z,99146.55
2019-01-31T00:05:56.675Z,99141.44
2019-01-31T00:09:17.906Z,99141.44
2019-01-31T00:12:44.293Z,99140.13
2019-01-31T00:15:56.628Z,99143.58
2019-01-31T00:19:28.233Z,99146.75
2019-01-31T00:22:37.456Z,99138.75
2019-01-31T00:26:00.045Z,99145.64
2019-01-31T00:29:09.496Z,99139.63
2019-01-31T00:32:24.565Z,99140.19
2019-01-31T00:35:37.078Z,99141.11
2019-01-31T00:38:56.890Z,99150.27
2019-01-31T00:42:21.454Z,99147.41
2019-01-31T00:45:33.632Z,99146.79
2019-01-31T00:48:54.370Z,99146.69
2019-01-31T00:52:12.615Z,99158.89
2019-01-31T00:55:31.341Z,99147.03
2019-01-31T00:58:49.880Z,99137.22
2019-01-31T01:02:05.365Z,99135.97
2019-01-31T01:05:23.619Z,99133.70
2019-01-31T01:08:35.872Z,99131.22
2019-01-31T01:12:04.869Z,99131.91
2019-01-31T01:15:14.286Z,99139.41
2019-01-31T01:18:41.883Z,99131.47
2019-01-31T01:22:02.620Z,99137.07
2019-01-31T01:25:42.664Z,99132.95
2019-01-31T01:29:10.031Z,99120.97
2019-01-31T01:32:19.130Z,99117.28
2019-01-31T01:35:44.275Z,99122.70
2019-01-31T01:38:59.852Z,99121.23
2019-01-31T01:42:12.250Z,99123.38
2019-01-31T01:45:55.538Z,99122.17
2019-01-31T01:49:37.519Z,99127.80
2019-01-31T01:53:20.807Z,99113.81
2019-01-31T01:57:04.123Z,99108.26
2019-01-31T02:00:46.085Z,99103.17
2019-01-31T02:04:29.418Z,99099.40
2019-01-31T02:07:53.584Z,99097.67
2019-01-31T02:11:35.550Z,99100.17
2019-01-31T02:15:17.511Z,99091.18
2019-01-31T02:18:59.493Z,99099.05
2019-01-31T02:22:41.447Z,99098.97
2019-01-31T02:26:23.442Z,99107.80
2019-01-31T02:30:05.572Z,99108.39
2019-01-31T02:33:29.645Z,99098.33
2019-01-31T02:36:53.945Z,99099.50
2019-01-31T02:40:35.915Z,99090.70
2019-01-31T02:44:17.887Z,99094.82
2019-01-31T02:47:42.138Z,99088.28
2019-01-31T02:51:06.359Z,99083.03
2019-01-31T02:54:30.588Z,99084.94
2019-01-31T02:57:54.774Z,99079.68
2019-01-31T03:01:40.807Z,99084.91
2019-01-31T03:05:22.795Z,99078.08
2019-01-31T03:08:46.970Z,99069.15
2019-01-31T03:12:28.926Z,99080.66
2019-01-31T03:15:53.093Z,99073.34
2019-01-31T03:19:17.332Z,99069.15
2019-01-31T03:22:59.293Z,99073.84
2019-01-31T03:26:42.594Z,99064.77
2019-01-31T03:30:26.140Z,99066.67
2019-01-31T03:34:09.507Z,99057.05
2019-01-31T03:37:51.466Z,99052.32
2019-01-31T03:41:33.444Z,99053.70
2019-01-31T03:45:16.752Z,99057.82
2019-01-31T03:48:58.707Z,99059.44
2019-01-31T03:52:40.688Z,99062.58
2019-01-31T03:56:22.653Z,99059.52
2019-01-31T04:00:05.948Z,99061.01
2019-01-31T04:03:49.288Z,99054.09
2019-01-31T04:06:52.657Z,99056.69
2019-01-31T04:09:56.041Z,99050.73
2019-01-31T04:12:59.664Z,99050.94
2019-01-31T04:16:03.042Z,99047.53
2019-01-31T04:19:06.416Z,99043.04
2019-01-31T04:22:09.788Z,99040.17
2019-01-31T04:25:32.538Z,99046.39
2019-01-31T04:28:35.891Z,99045.20
2019-01-31T04:31:39.267Z,99049.63
2019-01-31T04:34:42.647Z,99049.84
2019-01-31T04:37:46.038Z,99046.61
2019-01-31T04:40:49.409Z,99046.97
2019-01-31T04:43:52.800Z,99050.85
2019-01-31T04:46:56.167Z,99042.36
2019-01-31T04:49:59.790Z,99052.38
2019-01-31T04:53:03.180Z,99049.88
2019-01-31T04:56:06.684Z,99042.73
2019-01-31T05:02:32.581Z,99039.30
2019-01-31T05:05:35.937Z,99044.47
2019-01-31T05:08:39.331Z,99043.05
2019-01-31T05:11:42.709Z,99034.89
2019-01-31T05:14:46.085Z,99035.33
2019-01-31T05:17:49.468Z,99035.33
2019-01-31T05:20:52.825Z,99029.01
2019-01-31T05:23:56.205Z,99028.14
2019-01-31T05:26:59.587Z,99028.77
2019-01-31T05:30:02.950Z,99021.80
2019-01-31T05:33:06.397Z,99025.17
2019-01-31T05:36:09.768Z,99021.25
2019-01-31T05:39:32.480Z,99015.87
2019-01-31T05:42:35.860Z,99019.74
2019-01-31T05:45:39.475Z,99020.64
2019-01-31T05:48:42.861Z,99022.01
2019-01-31T05:51:46.241Z,99028.03
2019-01-31T05:54:49.622Z,99031.95
2019-01-31T05:57:52.994Z,99024.72
2019-01-31T06:00:56.376Z,99016.03
2019-01-31T06:03:59.753Z,99020.26
2019-01-31T06:07:10.948Z,99018.05
2019-01-31T06:10:27.563Z,99020.27
2019-01-31T06:13:30.942Z,99024.69
2019-01-31T06:16:53.664Z,99024.93
2019-01-31T06:20:35.903Z,99023.61
2019-01-31T06:23:39.508Z,99031.43
2019-01-31T06:26:43.130Z,99033.05
2019-01-31T06:29:46.518Z,99038.25
2019-01-31T06:32:49.893Z,99046.79
2019-01-31T06:35:53.278Z,99029.77
2019-01-31T06:38:56.652Z,99033.20
2019-01-31T06:42:00.037Z,99033.61
2019-01-31T06:48:34.116Z,99030.28
2019-01-31T06:51:38.835Z,99029.89
2019-01-31T06:54:42.208Z,99022.31
2019-01-31T06:57:45.580Z,99028.66
2019-01-31T07:00:48.950Z,99018.81
2019-01-31T07:04:11.663Z,99025.23
2019-01-31T07:07:15.048Z,99034.23
2019-01-31T07:10:37.756Z,99034.79
2019-01-31T07:14:00.484Z,99029.86
2019-01-31T07:17:03.924Z,99032.50
2019-01-31T07:20:26.721Z,99030.75
2019-01-31T07:23:49.452Z,99029.73
2019-01-31T07:26:52.817Z,99037.21
2019-01-31T07:30:08.790Z,99039.69
2019-01-31T07:33:12.596Z,99038.90
2019-01-31T07:36:15.963Z,99047.23
2019-01-31T07:39:19.334Z,99047.17
2019-01-31T07:42:22.706Z,99048.87
2019-01-31T07:45:30.904Z,99041.86
2019-01-31T07:48:34.271Z,99042.66
2019-01-31T07:51:37.638Z,99046.11
2019-01-31T07:54:41.022Z,99044.64
2019-01-31T07:57:44.388Z,99048.78
2019-01-31T08:00:47.762Z,99046.16
2019-01-31T08:04:01.981Z,99045.82
2019-01-31T08:06:56.536Z,99045.90
2019-01-31T08:09:59.905Z,99038.22
2019-01-31T08:13:03.354Z,99041.53
2019-01-31T08:16:06.714Z,99038.25
2019-01-31T08:19:10.093Z,99045.25
2019-01-31T08:22:13.448Z,99039.89
2019-01-31T08:25:22.219Z,99048.69
2019-01-31T08:28:25.590Z,99050.22
2019-01-31T08:31:28.971Z,99047.56
2019-01-31T08:34:32.344Z,99051.06
2019-01-31T08:37:35.733Z,99046.23
2019-01-31T08:40:39.108Z,99043.33
2019-01-31T08:43:42.823Z,99042.58
2019-01-31T08:46:46.214Z,99044.98
2019-01-31T08:49:49.825Z,99044.59
2019-01-31T08:52:53.207Z,99042.45
2019-01-31T08:55:56.596Z,99045.12
2019-01-31T08:59:04.603Z,99042.30
2019-01-31T09:02:08.240Z,99047.40
2019-01-31T09:05:11.734Z,99045.81
2019-01-31T09:08:15.442Z,99047.14
2019-01-31T09:11:18.823Z,99045.86
2019-01-31T09:14:22.190Z,99041.73
2019-01-31T09:17:25.629Z,99046.83
2019-01-31T09:20:47.395Z,99044.75
2019-01-31T09:27:43.807Z,99050.72
2019-01-31T09:30:53.156Z,99047.63
2019-01-31T09:34:11.471Z,99040.40
2019-01-31T09:37:26.598Z,99048.48
2019-01-31T09:40:54.220Z,99051.81
2019-01-31T09:44:18.876Z,99053.66
2019-01-31T09:47:40.290Z,99046.01
2019-01-31T09:50:55.540Z,99047.34
2019-01-31T09:54:01.967Z,99050.77
2019-01-31T09:57:25.024Z,99058.02
2019-01-31T10:00:31.451Z,99045.60
2019-01-31T10:03:43.817Z,99045.25
2019-01-31T10:07:10.138Z,99042.24
2019-01-31T10:10:42.382Z,99040.52
2019-01-31T10:13:57.631Z,99037.52
2019-01-31T10:17:07.178Z,99034.55
2019-01-31T10:20:31.592Z,99032.81
2019-01-31T10:23:40.735Z,99038.83
2019-01-31T10:26:52.881Z,99037.55
2019-01-31T10:30:25.238Z,99036.67
2019-01-31T10:33:52.431Z,99037.50
2019-01-31T10:36:58.856Z,99030.72
2019-01-31T10:40:11.323Z,99030.30
2019-01-31T10:43:20.571Z,99029.44
2019-01-31T10:46:33.224Z,99023.02
2019-01-31T10:49:48.683Z,99021.72
2019-01-31T10:53:10.111Z,99011.91
2019-01-31T10:56:27.799Z,99011.91
2019-01-31T10:59:34.216Z,99010.60
2019-01-31T11:02:47.898Z,99002.91
2019-01-31T11:06:15.504Z,98998.20
2019-01-31T11:09:22.160Z,98999.91
2019-01-31T11:13:00.854Z,98993.06
2019-01-31T11:16:08.397Z,98987.91
2019-01-31T11:19:30.002Z,98995.23
2019-01-31T11:22:51.411Z,98983.67
2019-01-31T11:26:09.410Z,98985.34
2019-01-31T11:29:21.582Z,98992.55
2019-01-31T11:32:28.025Z,98985.36
2019-01-31T11:35:40.221Z,98984.12
2019-01-31T11:39:08.073Z,98990.94
2019-01-31T11:42:30.820Z,98986.25
2019-01-31T11:45:42.834Z,98979.80
2019-01-31T11:49:10.166Z,98984.97
2019-01-31T11:52:25.740Z,98983.27
2019-01-31T11:55:40.824Z,98976.42
2019-01-31T11:59:01.513Z,98980.63
2019-01-31T12:02:06.388Z,98972.09
2019-01-31T12:05:10.002Z,98976.31
2019-01-31T12:08:13.369Z,98982.67
2019-01-31T12:11:16.756Z,98973.56
2019-01-31T12:14:20.193Z,98983.02
2019-01-31T12:17:23.560Z,98981.44
2019-01-31T12:20:27.110Z,98972.21
2019-01-31T12:23:32.373Z,98974.61
2019-01-31T12:26:35.656Z,98984.06
2019-01-31T12:29:39.032Z,98981.52
2019-01-31T12:32:42.403Z,98987.09
2019-01-31T12:35:45.909Z,98991.81
2019-01-31T12:38:49.277Z,98993.09
2019-01-31T12:41:52.653Z,98992.22
2019-01-31T12:44:56.022Z,98995.21
2019-01-31T12:47:59.452Z,98998.18
2019-01-31T12:51:02.901Z,98996.94
2019-01-31T12:54:06.405Z,98993.08
2019-01-31T12:57:09.777Z,98993.05
2019-01-31T13:00:24.526Z,98986.66
2019-01-31T13:03:27.880Z,98972.94
2019-01-31T13:06:31.324Z,98977.17
2019-01-31T13:09:34.687Z,98972.39
2019-01-31T13:12:48.310Z,98968.02
2019-01-31T13:15:43.227Z,98972.37
2019-01-31T13:18:46.600Z,98973.63
2019-01-31T13:21:50.054Z,98965.16
2019-01-31T13:24:53.557Z,98974.55
2019-01-31T13:27:56.928Z,98968.96
2019-01-31T13:31:00.294Z,98971.91
2019-01-31T13:34:03.806Z,98969.27
2019-01-31T13:37:07.259Z,98963.45
2019-01-31T13:40:24.972Z,98964.27
2019-01-31T13:43:28.352Z,98962.92
2019-01-31T13:46:31.792Z,98956.03
2019-01-31T13:49:35.235Z,98958.70
2019-01-31T13:52:38.615Z,98955.66
2019-01-31T13:59:25.041Z,98954.85
2019-01-31T14:02:28.416Z,98951.77
2019-01-31T14:05:31.785Z,98953.19
2019-01-31T14:08:35.170Z,98948.07
2019-01-31T14:11:38.532Z,98951.81
2019-01-31T14:14:41.907Z,98948.70
2019-01-31T14:17:45.512Z,98942.00
2019-01-31T14:20:49.172Z,98947.17
2019-01-31T14:23:52.550Z,98946.52
2019-01-31T14:26:55.916Z,98949.52
2019-01-31T14:29:59.364Z,98945.03
2019-01-31T14:40:02.012Z,98956.23
2019-01-31T14:43:05.455Z,98953.30
2019-01-31T14:46:08.832Z,98955.82
2019-01-31T14:49:12.274Z,98953.23
2019-01-31T14:52:15.653Z,98953.64
2019-01-31T14:55:19.178Z,98956.70
2019-01-31T14:58:22.610Z,98953.27
2019-01-31T15:01:26.000Z,98953.30
2019-01-31T15:04:29.381Z,98954.95
2019-01-31T15:07:32.764Z,98947.28
2019-01-31T15:10:36.421Z,98952.84
2019-01-31T15:13:39.815Z,98943.81
2019-01-31T15:16:43.200Z,98948.89
2019-01-31T15:19:46.568Z,98945.52
2019-01-31T15:22:49.946Z,98935.64
2019-01-31T15:25:53.319Z,98942.95
2019-01-31T15:28:56.692Z,98936.99
2019-01-31T15:32:00.144Z,98933.95
2019-01-31T15:38:46.574Z,98935.24
2019-01-31T15:41:49.976Z,98929.25
2019-01-31T15:48:36.409Z,98916.48
2019-01-31T15:51:39.781Z,98914.72
2019-01-31T15:54:43.173Z,98913.48
2019-01-31T15:57:46.632Z,98916.95
2019-01-31T16:01:29.920Z,98912.30
2019-01-31T16:04:33.376Z,98916.54
2019-01-31T16:07:36.744Z,98905.42
2019-01-31T16:10:40.221Z,98898.15
2019-01-31T16:13:43.995Z,98897.31
2019-01-31T16:16:47.353Z,98901.15
2019-01-31T16:19:50.733Z,98901.13
2019-01-31T16:22:54.509Z,98901.17
2019-01-31T16:25:57.879Z,98897.73
2019-01-31T16:29:01.271Z,98902.42
2019-01-31T16:32:04.979Z,98901.11
2019-01-31T16:35:48.273Z,98892.63
2019-01-31T16:38:51.648Z,98897.31
2019-01-31T16:41:55.104Z,98894.32
2019-01-31T16:45:06.426Z,98882.80
2019-01-31T16:51:46.646Z,98879.36
2019-01-31T16:54:50.058Z,98879.41
2019-01-31T17:01:36.645Z,98875.16
2019-01-31T17:04:40.008Z,98869.19
2019-01-31T17:07:43.460Z,98869.19
2019-01-31T17:14:16.144Z,98852.50
2019-01-31T17:17:19.595Z,98855.05
2019-01-31T17:20:42.368Z,98859.30
2019-01-31T17:23:45.687Z,98855.04
2019-01-31T17:26:49.060Z,98853.31
2019-01-31T17:29:52.445Z,98857.10
2019-01-31T17:32:55.850Z,98854.52
2019-01-31T17:35:59.527Z,98863.49
2019-01-31T17:42:13.270Z,98855.33
2019-01-31T17:45:56.558Z,98851.05
2019-01-31T17:48:59.957Z,98851.47
2019-01-31T17:52:03.385Z,98853.98
2019-01-31T17:55:46.678Z,98848.95
2019-01-31T17:58:50.058Z,98845.11
2019-01-31T18:01:55.392Z,98839.94
2019-01-31T18:04:58.617Z,98831.44
2019-01-31T18:08:02.402Z,98824.63
2019-01-31T18:11:05.837Z,98824.18
2019-01-31T18:14:09.222Z,98822.42
2019-01-31T18:17:12.651Z,98822.92
2019-01-31T18:20:55.946Z,98814.80
2019-01-31T18:23:59.327Z,98809.23
2019-01-31T18:27:02.691Z,98802.81
2019-01-31T18:30:45.986Z,98805.40
2019-01-31T18:33:49.358Z,98800.30
2019-01-31T18:36:52.727Z,98786.67
2019-01-31T18:39:56.113Z,98769.27
2019-01-31T18:42:59.559Z,98759.02
2019-01-31T18:46:03.034Z,98767.05
2019-01-31T18:49:06.398Z,98769.95
2019-01-31T18:52:10.183Z,98766.53
2019-01-31T18:55:53.469Z,98762.38
2019-01-31T18:58:56.841Z,98769.09
2019-01-31T19:02:00.527Z,98765.77
2019-01-31T19:05:43.835Z,98772.61
2019-01-31T19:08:47.175Z,98788.23
2019-01-31T19:11:50.550Z,98789.40
2019-01-31T19:15:33.898Z,98793.98
2019-01-31T19:18:37.264Z,98786.34
2019-01-31T19:21:47.819Z,98781.70
2019-01-31T19:24:51.193Z,98780.06
2019-01-31T19:27:54.573Z,98779.16
2019-01-31T19:30:57.968Z,98762.73
2019-01-31T19:34:01.375Z,98750.42
2019-01-31T19:37:04.831Z,98739.27
2019-01-31T19:40:48.103Z,98738.65
2019-01-31T19:43:51.466Z,98734.52
2019-01-31T19:46:54.945Z,98730.20
2019-01-31T19:49:58.373Z,98708.58
2019-01-31T19:53:01.901Z,98713.25
2019-01-31T19:56:05.268Z,98706.45
2019-01-31T19:59:08.643Z,98691.97
2019-01-31T20:02:12.025Z,98686.87
2019-01-31T20:05:55.312Z,98677.08
2019-01-31T20:08:58.703Z,98674.08
2019-01-31T20:12:02.095Z,98661.23
2019-01-31T20:15:26.284Z,98657.38
2019-01-31T20:18:29.664Z,98643.28
2019-01-31T20:21:33.041Z,98642.02
2019-01-31T20:24:36.432Z,98632.27
2019-01-31T20:27:39.880Z,98624.55
2019-01-31T20:30:43.330Z,98614.37
2019-01-31T20:33:46.787Z,98603.30
2019-01-31T20:36:50.258Z,98607.58
2019-01-31T20:39:53.654Z,98609.57
2019-01-31T20:42:57.109Z,98615.61
2019-01-31T20:46:00.486Z,98606.25
2019-01-31T20:49:04.043Z,98604.18
2019-01-31T20:52:07.577Z,98602.39
2019-01-31T20:55:31.764Z,98586.64
2019-01-31T20:58:35.160Z,98585.33
2019-01-31T21:01:38.550Z,98603.97
2019-01-31T21:04:42.029Z,98588.63
2019-01-31T21:07:45.410Z,98586.98
2019-01-31T21:10:48.801Z,98593.33
2019-01-31T21:13:53.039Z,98594.57
2019-01-31T21:17:08.380Z,98578.88
2019-01-31T21:20:51.700Z,98581.45
2019-01-31T21:23:55.085Z,98578.43
2019-01-31T21:26:58.478Z,98581.89
2019-01-31T21:30:01.921Z,98579.34
2019-01-31T21:33:05.506Z,98571.68
2019-01-31T21:36:08.883Z,98573.82
2019-01-31T21:39:12.346Z,98565.66
2019-01-31T21:42:15.739Z,98561.42
2019-01-31T21:45:38.543Z,98560.66
2019-01-31T21:48:41.903Z,98548.73
2019-01-31T21:51:45.286Z,98537.30
2019-01-31T21:54:48.671Z,98540.73
2019-01-31T21:57:52.129Z,98533.50
2019-01-31T22:00:55.521Z,98521.09
2019-01-31T22:03:59.162Z,98514.73
2019-01-31T22:07:02.551Z,98510.47
2019-01-31T22:10:26.714Z,98504.53
2019-01-31T22:13:30.086Z,98494.72
2019-01-31T22:16:33.459Z,98506.20
2019-01-31T22:19:36.830Z,98501.05
2019-01-31T22:22:40.344Z,98498.92
2019-01-31T22:25:43.718Z,98489.50
2019-01-31T22:28:47.105Z,98482.25
2019-01-31T22:31:50.488Z,98479.27
2019-01-31T22:34:54.095Z,98473.73
2019-01-31T22:38:16.815Z,98472.05
2019-01-31T22:41:20.204Z,98468.22
2019-01-31T22:44:23.581Z,98471.27
2019-01-31T22:47:26.962Z,98465.70
2019-01-31T22:50:30.343Z,98455.92
2019-01-31T22:53:33.947Z,98452.95
2019-01-31T22:56:37.330Z,98452.95
2019-01-31T22:59:40.703Z,98454.23
2019-01-31T23:02:44.087Z,98447.02
2019-01-31T23:05:47.552Z,98440.65
2019-01-31T23:08:50.925Z,98435.52
2019-01-31T23:11:54.373Z,98416.37
2019-01-31T23:14:57.763Z,98419.77
2019-01-31T23:18:01.175Z,98415.06
2019-01-31T23:21:05.190Z,98417.61
2019-01-31T23:24:08.643Z,98404.38
2019-01-31T23:27:12.341Z,98400.47
2019-01-31T23:30:36.508Z,98391.11
2019-01-31T23:33:41.244Z,98383.94
2019-01-31T23:36:45.001Z,98380.08
2019-01-31T23:39:48.395Z,98368.91
2019-01-31T23:42:52.073Z,98374.48
2019-01-31T23:45:55.395Z,98365.56
2019-01-31T23:48:58.793Z,98354.91
2019-01-31T23:52:02.174Z,98351.05
2019-01-31T23:55:45.476Z,98357.94
2019-01-31T23:58:48.859Z,98348.58
